Airfield :
LOGIN :

Register | Disclaimer

   EN    FR    IT 

 










Legend :    VFR   Marginal VFR   IFR   Intensive IFR   Very Intensive IFR
Visi :
Ceiling :
>= 8 km
>= 3000ft
5 to 8 km
1000 to 3000 ft
1500m to 5 km
500 to 1000 ft
800 to 1500m
200 to 500 ft
< 800m
< 200 ft
Symbols :   Thunderstorms  Fog  Heavy snow  Heavy precipitations  Wind > 20 kt
SIGMETs :     Misc.  Thunderstorms  Icing  Turbulence  Mountain Waves  Volcanic Ashes







- Airport Elevation : 600 ft
- IATA code : VIE


LOWW - Vienna Schwechat

CURRENT METAR :
  • 160420Z 14002KT CAVOK 13/11 Q1015 BECMG FM0600 32007KT

EXPIRED METARs :
  • 160350Z 16003KT CAVOK 12/10 Q1014 NOSIG
  • 160320Z 17004KT CAVOK 12/10 Q1015 NOSIG
  • 160250Z 16003KT CAVOK 12/10 Q1015 NOSIG
  • 160220Z 12003KT 090V150 CAVOK 13/11 Q1015 NOSIG
  • 160150Z VRB02KT CAVOK 13/11 Q1014 NOSIG

TAF TAF LOWW
Valid from the 16 at 03:00 until the 17 at 09:00 UTC


160215Z 1603/1709 32004KT CAVOK TX26/1615Z TN14/1704Z
TEMPO 1608/1618 32012G22KT
No reported NOTAMs for that airfield.



MET'MAP, your aeronautical weather chart ! - Copyright ORBIFLY December 2007 - Disclaimer

ORBIFLY MET'MAP TEAM :

Programming & Development : Alexandra Zaïnal
Concept & Development : Baudouin d'Aumeries
Co-Development & Prog : Marc-Olivier Méhu
Technical & hardware support : Manuel Goepfert

Contact : metmap@orbifly.com




SOURCES & CREDITS :

   NOAA